createdAt,value
2019-04-16T00:00:36.253Z,1019.23
2019-04-16T00:01:36.256Z,1019.23
2019-04-16T00:02:36.221Z,1019.26
2019-04-16T00:03:36.235Z,1019.23
2019-04-16T00:04:36.212Z,1019.24
2019-04-16T00:05:36.223Z,1019.20
2019-04-16T00:06:36.180Z,1019.19
2019-04-16T00:07:36.168Z,1019.14
2019-04-16T00:08:36.159Z,1019.15
2019-04-16T00:09:36.148Z,1019.18
2019-04-16T00:10:36.137Z,1019.18
2019-04-16T00:11:36.149Z,1019.11
2019-04-16T00:12:36.117Z,1019.16
2019-04-16T00:13:36.108Z,1019.13
2019-04-16T00:14:36.101Z,1019.16
2019-04-16T00:15:36.085Z,1019.15
2019-04-16T00:16:36.076Z,1019.14
2019-04-16T00:17:36.057Z,1019.14
2019-04-16T00:18:36.055Z,1019.13
2019-04-16T00:19:36.051Z,1019.13
2019-04-16T00:20:37.999Z,1019.15
2019-04-16T00:21:38.493Z,1019.12
2019-04-16T00:22:37.012Z,1019.12
2019-04-16T00:23:36.012Z,1019.13
2019-04-16T00:24:35.994Z,1019.07
2019-04-16T00:25:35.972Z,1019.11
2019-04-16T00:26:35.980Z,1019.10
2019-04-16T00:27:35.954Z,1019.11
2019-04-16T00:28:35.940Z,1019.09
2019-04-16T00:29:35.932Z,1019.07
2019-04-16T00:30:36.393Z,1019.07
2019-04-16T00:31:37.073Z,1019.11
2019-04-16T00:32:38.074Z,1018.97
2019-04-16T00:33:35.888Z,1019.04
2019-04-16T00:34:35.981Z,1019.00
2019-04-16T00:35:35.867Z,1018.91
2019-04-16T00:36:35.867Z,1019.03
2019-04-16T00:37:35.848Z,1018.99
2019-04-16T00:38:40.799Z,1018.98
2019-04-16T00:39:36.817Z,1019.06
2019-04-16T00:40:35.818Z,1019.01
2019-04-16T00:41:35.823Z,1019.04
2019-04-16T00:42:35.805Z,1019.08
2019-04-16T00:43:35.777Z,1019.09
2019-04-16T00:44:35.777Z,1019.05
2019-04-16T00:45:35.762Z,1018.94
2019-04-16T00:46:35.746Z,1019.03
2019-04-16T00:47:35.754Z,1019.04
2019-04-16T00:48:35.732Z,1019.03
2019-04-16T00:49:37.919Z,1018.96
2019-04-16T00:50:35.702Z,1019.00
2019-04-16T00:51:35.692Z,1018.98
2019-04-16T00:52:36.994Z,1019.00
2019-04-16T00:53:36.409Z,1019.00
2019-04-16T00:54:35.670Z,1018.97
2019-04-16T00:55:35.649Z,1018.92
2019-04-16T00:56:35.653Z,1018.95
2019-04-16T00:57:35.628Z,1018.90
2019-04-16T00:58:35.917Z,1018.97
2019-04-16T00:59:35.606Z,1018.92
2019-04-16T01:00:35.608Z,1018.94
2019-04-16T01:01:35.588Z,1018.95
2019-04-16T01:02:35.589Z,1018.86
2019-04-16T01:03:35.575Z,1018.90
2019-04-16T01:04:35.556Z,1018.90
2019-04-16T01:05:35.840Z,1018.88
2019-04-16T01:06:37.918Z,1018.93
2019-04-16T01:07:36.514Z,1018.94
2019-04-16T01:08:35.514Z,1018.93
2019-04-16T01:09:35.503Z,1018.83
2019-04-16T01:10:35.492Z,1018.90
2019-04-16T01:11:35.480Z,1018.89
2019-04-16T01:12:35.474Z,1018.92
2019-04-16T01:13:35.460Z,1018.91
2019-04-16T01:14:35.458Z,1018.84
2019-04-16T01:15:35.452Z,1018.89
2019-04-16T01:16:35.429Z,1018.85
2019-04-16T01:17:36.069Z,1018.85
2019-04-16T01:18:38.529Z,1018.89
2019-04-16T01:19:35.398Z,1018.87
2019-04-16T01:20:35.388Z,1018.88
2019-04-16T01:21:35.378Z,1018.87
2019-04-16T01:22:35.377Z,1018.82
2019-04-16T01:23:35.348Z,1018.86
2019-04-16T01:24:35.347Z,1018.78
2019-04-16T01:25:35.337Z,1018.83
2019-04-16T01:26:35.316Z,1018.77
2019-04-16T01:27:35.325Z,1018.80
2019-04-16T01:28:35.307Z,1018.78
2019-04-16T01:29:35.289Z,1018.83
2019-04-16T01:30:36.577Z,1018.74
2019-04-16T01:31:36.278Z,1018.79
2019-04-16T01:32:35.254Z,1018.85
2019-04-16T01:33:35.255Z,1018.83
2019-04-16T01:34:35.232Z,1018.84
2019-04-16T01:35:35.223Z,1018.84
2019-04-16T01:36:35.214Z,1018.86
2019-04-16T01:37:35.211Z,1018.84
2019-04-16T01:38:35.191Z,1018.77
2019-04-16T01:39:35.180Z,1018.77
2019-04-16T01:40:35.170Z,1018.81
2019-04-16T01:41:35.160Z,1018.80
2019-04-16T01:42:35.173Z,1018.76
2019-04-16T01:43:35.138Z,1018.82
2019-04-16T01:44:35.129Z,1018.80
2019-04-16T01:45:35.117Z,1018.75
2019-04-16T01:46:35.099Z,1018.73
2019-04-16T01:47:37.049Z,1018.80
2019-04-16T01:48:38.648Z,1018.76
2019-04-16T01:49:35.075Z,1018.70
2019-04-16T01:50:35.055Z,1018.78
2019-04-16T01:51:37.676Z,1018.71
2019-04-16T01:52:35.045Z,1018.72
2019-04-16T01:53:35.045Z,1018.75
2019-04-16T01:54:35.017Z,1018.70
2019-04-16T01:55:35.014Z,1018.72
2019-04-16T01:56:35.008Z,1018.70
2019-04-16T01:57:34.984Z,1018.72
2019-04-16T01:58:34.983Z,1018.66
2019-04-16T01:59:35.789Z,1018.69
2019-04-16T02:00:36.477Z,1018.66
2019-04-16T02:01:34.942Z,1018.64
2019-04-16T02:02:34.931Z,1018.68
2019-04-16T02:03:34.914Z,1018.74
2019-04-16T02:04:34.903Z,1018.64
2019-04-16T02:05:34.911Z,1018.69
2019-04-16T02:06:34.896Z,1018.70
2019-04-16T02:07:34.898Z,1018.64
2019-04-16T02:08:34.894Z,1018.64
2019-04-16T02:09:35.755Z,1018.62
2019-04-16T02:10:35.423Z,1018.59
2019-04-16T02:11:34.859Z,1018.67
2019-04-16T02:12:34.827Z,1018.63
2019-04-16T02:13:34.829Z,1018.59
2019-04-16T02:14:34.829Z,1018.73
2019-04-16T02:15:34.795Z,1018.75
2019-04-16T02:16:34.776Z,1018.64
2019-04-16T02:17:34.774Z,1018.74
2019-04-16T02:18:34.781Z,1018.72
2019-04-16T02:19:34.752Z,1018.73
2019-04-16T02:20:38.487Z,1018.71
2019-04-16T02:21:34.789Z,1018.75
2019-04-16T02:22:34.721Z,1018.69
2019-04-16T02:23:34.702Z,1018.66
2019-04-16T02:24:34.701Z,1018.68
2019-04-16T02:25:34.682Z,1018.68
2019-04-16T02:26:34.680Z,1018.68
2019-04-16T02:27:34.659Z,1018.65
2019-04-16T02:28:34.677Z,1018.68
2019-04-16T02:29:34.643Z,1018.66
2019-04-16T02:30:39.385Z,1018.63
2019-04-16T02:31:35.619Z,1018.63
2019-04-16T02:32:34.628Z,1018.61
2019-04-16T02:33:34.598Z,1018.58
2019-04-16T02:34:34.594Z,1018.63
2019-04-16T02:35:34.577Z,1018.60
2019-04-16T02:36:34.586Z,1018.58
2019-04-16T02:37:36.593Z,1018.58
2019-04-16T02:38:34.546Z,1018.57
2019-04-16T02:39:47.761Z,1018.64
2019-04-16T02:40:35.533Z,1018.58
2019-04-16T02:41:34.525Z,1018.53
2019-04-16T02:42:34.512Z,1018.61
2019-04-16T02:43:39.734Z,1018.56
2019-04-16T02:44:35.482Z,1018.61
2019-04-16T02:45:34.472Z,1018.54
2019-04-16T02:46:34.464Z,1018.55
2019-04-16T02:47:39.968Z,1018.50
2019-04-16T02:48:35.444Z,1018.51
2019-04-16T02:49:34.435Z,1018.66
2019-04-16T02:50:34.449Z,1018.54
2019-04-16T02:51:39.896Z,1018.61
2019-04-16T02:52:35.400Z,1018.56
2019-04-16T02:53:34.397Z,1018.56
2019-04-16T02:54:34.611Z,1018.50
2019-04-16T02:55:34.368Z,1018.55
2019-04-16T02:56:34.356Z,1018.50
2019-04-16T02:57:34.369Z,1018.53
2019-04-16T02:58:35.298Z,1018.53
2019-04-16T02:59:34.317Z,1018.47
2019-04-16T03:00:34.307Z,1018.47
2019-04-16T03:01:34.305Z,1018.50
2019-04-16T03:02:34.295Z,1018.49
2019-04-16T03:03:34.277Z,1018.52
2019-04-16T03:04:34.264Z,1018.47
2019-04-16T03:05:34.253Z,1018.43
2019-04-16T03:06:34.255Z,1018.42
2019-04-16T03:07:34.243Z,1018.39
2019-04-16T03:08:36.031Z,1018.43
2019-04-16T03:09:34.215Z,1018.38
2019-04-16T03:10:34.213Z,1018.35
2019-04-16T03:11:34.200Z,1018.34
2019-04-16T03:12:34.193Z,1018.38
2019-04-16T03:13:34.190Z,1018.38
2019-04-16T03:14:34.173Z,1018.37
2019-04-16T03:15:34.150Z,1018.40
2019-04-16T03:16:37.612Z,1018.34
2019-04-16T03:17:34.129Z,1018.32
2019-04-16T03:18:34.128Z,1018.34
2019-04-16T03:19:34.107Z,1018.33
2019-04-16T03:20:34.097Z,1018.31
2019-04-16T03:21:34.096Z,1018.27
2019-04-16T03:22:34.505Z,1018.29
2019-04-16T03:23:36.479Z,1018.32
2019-04-16T03:24:34.056Z,1018.32
2019-04-16T03:25:34.044Z,1018.28
2019-04-16T03:26:34.046Z,1018.32
2019-04-16T03:27:34.023Z,1018.30
2019-04-16T03:28:34.033Z,1018.28
2019-04-16T03:29:34.004Z,1018.21
2019-04-16T03:30:40.304Z,1018.28
2019-04-16T03:31:34.983Z,1018.28
2019-04-16T03:32:35.966Z,1018.31
2019-04-16T03:33:33.962Z,1018.30
2019-04-16T03:34:33.962Z,1018.26
2019-04-16T03:35:33.951Z,1018.23
2019-04-16T03:36:33.922Z,1018.24
2019-04-16T03:37:33.921Z,1018.20
2019-04-16T03:38:36.730Z,1018.20
2019-04-16T03:39:33.908Z,1018.17
2019-04-16T03:40:33.895Z,1018.18
2019-04-16T03:41:33.869Z,1018.11
2019-04-16T03:42:33.865Z,1018.21
2019-04-16T03:43:33.847Z,1018.23
2019-04-16T03:44:37.155Z,1018.24
2019-04-16T03:45:33.829Z,1018.18
2019-04-16T03:47:42.757Z,1018.31
2019-04-16T03:48:42.736Z,1018.26
2019-04-16T03:49:42.725Z,1018.24
2019-04-16T03:50:42.709Z,1018.31
2019-04-16T03:51:42.696Z,1018.23
2019-04-16T03:52:45.717Z,1018.27
2019-04-16T03:53:42.684Z,1018.27
2019-04-16T03:54:42.664Z,1018.20
2019-04-16T03:55:42.655Z,1018.25
2019-04-16T03:56:42.645Z,1018.18
2019-04-16T03:57:42.643Z,1018.26
2019-04-16T03:58:42.632Z,1018.26
2019-04-16T03:59:42.622Z,1018.15
2019-04-16T04:00:44.160Z,1018.22
2019-04-16T04:01:45.472Z,1018.19
2019-04-16T04:02:42.580Z,1018.25
2019-04-16T04:03:42.590Z,1018.23
2019-04-16T04:04:42.558Z,1018.21
2019-04-16T04:05:42.542Z,1018.15
2019-04-16T04:06:42.561Z,1018.18
2019-04-16T04:07:44.138Z,1018.20
2019-04-16T04:08:42.522Z,1018.11
2019-04-16T04:09:42.507Z,1018.16
2019-04-16T04:10:42.515Z,1018.14
2019-04-16T04:11:42.497Z,1018.16
2019-04-16T04:12:42.573Z,1018.16
2019-04-16T04:13:42.496Z,1018.14
2019-04-16T04:14:43.293Z,1018.04
2019-04-16T04:15:42.504Z,1018.08
2019-04-16T04:16:42.436Z,1018.12
2019-04-16T04:17:42.417Z,1018.09
2019-04-16T04:18:43.348Z,1018.02
2019-04-16T04:19:43.510Z,1018.14
2019-04-16T04:20:42.403Z,1018.07
2019-04-16T04:21:42.383Z,1018.06
2019-04-16T04:22:42.362Z,1018.09
2019-04-16T04:23:42.361Z,1018.10
2019-04-16T04:24:42.351Z,1018.14
2019-04-16T04:25:42.350Z,1018.00
2019-04-16T04:26:42.851Z,1018.08
2019-04-16T04:27:43.664Z,1018.14
2019-04-16T04:28:42.298Z,1018.08
2019-04-16T04:29:42.289Z,1018.11
2019-04-16T04:30:42.290Z,1018.09
2019-04-16T04:31:42.269Z,1018.13
2019-04-16T04:32:42.282Z,1018.11
2019-04-16T04:33:43.117Z,1018.10
2019-04-16T04:34:42.239Z,1018.10
2019-04-16T04:35:42.246Z,1018.08
2019-04-16T04:36:42.216Z,1018.10
2019-04-16T04:37:42.213Z,1018.07
2019-04-16T04:38:42.224Z,1018.04
2019-04-16T04:39:44.238Z,1018.05
2019-04-16T04:40:44.589Z,1018.06
2019-04-16T04:41:42.173Z,1018.09
2019-04-16T04:42:42.162Z,1018.05
2019-04-16T04:43:42.144Z,1018.12
2019-04-16T04:44:42.142Z,1018.11
2019-04-16T04:45:42.121Z,1018.03
2019-04-16T04:46:43.203Z,1018.08
2019-04-16T04:47:42.101Z,1018.12
2019-04-16T04:48:42.102Z,1018.10
2019-04-16T04:49:42.080Z,1018.07
2019-04-16T04:50:42.059Z,1018.11
2019-04-16T04:51:43.399Z,1018.14
2019-04-16T04:52:43.269Z,1018.05
2019-04-16T04:53:42.038Z,1018.10
2019-04-16T04:54:42.026Z,1018.06
2019-04-16T04:55:42.017Z,1018.08
2019-04-16T04:56:41.998Z,1018.14
2019-04-16T04:57:42.025Z,1018.09
2019-04-16T04:58:41.985Z,1018.15
2019-04-16T04:59:41.967Z,1018.11
2019-04-16T05:00:41.966Z,1018.12
2019-04-16T05:01:42.669Z,1018.10
2019-04-16T05:02:43.662Z,1018.15
2019-04-16T05:03:44.358Z,1018.09
2019-04-16T05:04:42.914Z,1018.25
2019-04-16T05:05:42.154Z,1018.17
2019-04-16T05:06:41.895Z,1018.18
2019-04-16T05:07:41.901Z,1018.11
2019-04-16T05:08:41.882Z,1018.24
2019-04-16T05:09:41.869Z,1018.16
2019-04-16T05:10:43.414Z,1018.20
2019-04-16T05:11:41.841Z,1018.27
2019-04-16T05:12:41.840Z,1018.16
2019-04-16T05:13:41.819Z,1018.05
2019-04-16T05:14:41.818Z,1018.04
2019-04-16T05:15:41.800Z,1018.02
2019-04-16T05:16:41.798Z,1018.07
2019-04-16T05:17:41.777Z,1018.08
2019-04-16T05:18:42.678Z,1018.03
2019-04-16T05:19:43.706Z,1018.13
2019-04-16T05:20:46.760Z,1018.12
2019-04-16T05:21:42.735Z,1018.12
2019-04-16T05:22:41.736Z,1018.13
2019-04-16T05:23:41.721Z,1018.13
2019-04-16T05:24:41.710Z,1018.20
2019-04-16T05:25:41.707Z,1018.17
2019-04-16T05:26:41.684Z,1018.17
2019-04-16T05:27:41.709Z,1018.16
2019-04-16T05:28:45.436Z,1018.14
2019-04-16T05:29:41.655Z,1018.17
2019-04-16T05:30:41.632Z,1018.08
2019-04-16T05:31:41.632Z,1018.12
2019-04-16T05:32:41.630Z,1018.08
2019-04-16T05:33:41.609Z,1018.13
2019-04-16T05:34:41.599Z,1018.07
2019-04-16T05:35:42.406Z,1018.10
2019-04-16T05:36:46.549Z,1018.14
2019-04-16T05:37:42.578Z,1018.17
2019-04-16T05:38:41.547Z,1018.21
2019-04-16T05:39:41.538Z,1018.23
2019-04-16T05:40:41.528Z,1018.20
2019-04-16T05:41:41.549Z,1018.22
2019-04-16T05:42:41.516Z,1018.30
2019-04-16T05:43:41.496Z,1018.24
2019-04-16T05:44:41.489Z,1018.27
2019-04-16T05:45:41.486Z,1018.31
2019-04-16T05:46:46.268Z,1018.25
2019-04-16T05:47:42.454Z,1018.31
2019-04-16T05:48:41.446Z,1018.28
2019-04-16T05:49:41.444Z,1018.29
2019-04-16T05:50:41.423Z,1018.27
2019-04-16T05:51:41.421Z,1018.29
2019-04-16T05:52:41.403Z,1018.28
2019-04-16T05:53:41.401Z,1018.21
2019-04-16T05:54:44.026Z,1018.22
2019-04-16T05:55:41.371Z,1018.27
2019-04-16T05:56:41.374Z,1018.19
2019-04-16T05:57:41.360Z,1018.15
2019-04-16T05:58:41.340Z,1018.20
2019-04-16T05:59:41.329Z,1018.19
2019-04-16T06:00:42.319Z,1018.15
2019-04-16T06:01:42.450Z,1018.18
2019-04-16T06:02:41.304Z,1018.16
2019-04-16T06:03:41.279Z,1018.15
2019-04-16T06:04:41.278Z,1018.22
2019-04-16T06:05:41.267Z,1018.15
2019-04-16T06:06:41.261Z,1018.17
2019-04-16T06:07:41.237Z,1018.08
2019-04-16T06:08:41.782Z,1018.19
2019-04-16T06:09:41.419Z,1018.12
2019-04-16T06:10:41.214Z,1018.20
2019-04-16T06:11:41.205Z,1018.22
2019-04-16T06:12:41.186Z,1018.16
2019-04-16T06:13:44.141Z,1018.20
2019-04-16T06:14:41.178Z,1018.06
2019-04-16T06:15:41.154Z,1018.15
2019-04-16T06:16:41.149Z,1018.13
2019-04-16T06:17:41.133Z,1018.16
2019-04-16T06:18:41.133Z,1018.13
2019-04-16T06:19:46.476Z,1018.16
2019-04-16T06:20:42.094Z,1018.17
2019-04-16T06:21:41.084Z,1018.12
2019-04-16T06:22:41.073Z,1018.15
2019-04-16T06:23:41.091Z,1018.15
2019-04-16T06:24:41.871Z,1018.12
2019-04-16T06:25:42.075Z,1018.11
2019-04-16T06:26:41.035Z,1018.11
2019-04-16T06:27:41.021Z,1018.18
2019-04-16T06:28:41.021Z,1018.15
2019-04-16T06:29:41.472Z,1018.15
2019-04-16T06:30:41.009Z,1018.10
2019-04-16T06:31:40.989Z,1018.11
2019-04-16T06:32:40.968Z,1018.14
2019-04-16T06:33:40.958Z,1018.17
2019-04-16T06:34:40.958Z,1018.11
2019-04-16T06:35:43.372Z,1018.14
2019-04-16T06:36:40.938Z,1018.16
2019-04-16T06:37:40.920Z,1018.11
2019-04-16T06:38:40.912Z,1018.05
2019-04-16T06:39:40.907Z,1018.08
2019-04-16T06:40:40.888Z,1018.02
2019-04-16T06:41:47.131Z,1018.04
2019-04-16T06:42:41.876Z,1017.93
2019-04-16T06:43:40.855Z,1017.97
2019-04-16T06:44:40.844Z,1017.99
2019-04-16T06:45:40.835Z,1018.12
2019-04-16T06:46:40.825Z,1018.12
2019-04-16T06:47:42.037Z,1018.09
2019-04-16T06:48:42.572Z,1018.14
2019-04-16T06:49:41.784Z,1018.07
2019-04-16T06:50:40.898Z,1018.17
2019-04-16T06:51:44.499Z,1018.12
2019-04-16T06:52:40.755Z,1018.21
2019-04-16T06:53:40.763Z,1018.17
2019-04-16T06:54:40.732Z,1018.21
2019-04-16T06:55:42.924Z,1018.24
2019-04-16T06:56:41.160Z,1018.28
2019-04-16T06:57:42.933Z,1018.20
2019-04-16T06:58:50.674Z,1018.15
2019-04-16T06:59:41.692Z,1018.19
2019-04-16T07:00:40.679Z,1018.21
2019-04-16T07:01:42.037Z,1018.23
2019-04-16T07:02:43.100Z,1018.23
2019-04-16T07:03:41.654Z,1018.19
2019-04-16T07:04:41.554Z,1018.16
2019-04-16T07:05:40.618Z,1018.13
2019-04-16T07:06:43.516Z,1018.20
2019-04-16T07:07:45.578Z,1018.22
2019-04-16T07:08:42.000Z,1018.18
2019-04-16T07:09:42.027Z,1018.25
2019-04-16T07:10:44.769Z,1018.28
2019-04-16T07:11:53.454Z,1018.16
2019-04-16T07:12:41.573Z,1018.16
2019-04-16T07:13:42.227Z,1018.18
2019-04-16T07:14:40.534Z,1018.22
2019-04-16T07:15:40.517Z,1018.18
2019-04-16T07:16:40.517Z,1018.15
2019-04-16T07:17:40.718Z,1018.16
2019-04-16T07:18:40.474Z,1018.15
2019-04-16T07:19:42.173Z,1018.16
2019-04-16T07:20:42.285Z,1018.16
2019-04-16T07:21:41.445Z,1018.12
2019-04-16T07:22:40.745Z,1018.14
2019-04-16T07:23:40.439Z,1018.17
2019-04-16T07:24:40.520Z,1018.20
2019-04-16T07:25:42.858Z,1018.18
2019-04-16T07:26:46.442Z,1018.08
2019-04-16T07:27:41.614Z,1018.10
2019-04-16T07:28:40.372Z,1018.08
2019-04-16T07:29:40.585Z,1018.05
2019-04-16T07:30:40.818Z,1017.99
2019-04-16T07:31:40.331Z,1018.07
2019-04-16T07:32:40.335Z,1018.13
2019-04-16T07:33:40.322Z,1018.12
2019-04-16T07:34:40.311Z,1018.12
2019-04-16T07:35:40.342Z,1018.09
2019-04-16T07:36:40.290Z,1018.08
2019-04-16T07:37:40.281Z,1018.24
2019-04-16T07:38:40.274Z,1018.08
2019-04-16T07:39:40.249Z,1018.13
2019-04-16T07:40:40.928Z,1018.20
2019-04-16T07:41:42.723Z,1018.18
2019-04-16T07:42:51.244Z,1018.19
2019-04-16T07:43:41.220Z,1018.12
2019-04-16T07:44:40.211Z,1018.18
2019-04-16T07:45:40.188Z,1018.15
2019-04-16T07:46:40.207Z,1018.12
2019-04-16T07:47:40.223Z,1018.09
2019-04-16T07:48:40.158Z,1018.14
2019-04-16T07:49:40.159Z,1018.12
2019-04-16T07:50:40.137Z,1018.11
2019-04-16T07:51:40.147Z,1018.10
2019-04-16T07:52:42.007Z,1018.11
2019-04-16T07:53:40.118Z,1018.07
2019-04-16T07:54:40.103Z,1018.07
2019-04-16T07:55:40.107Z,1018.08
2019-04-16T07:56:40.095Z,1018.12
2019-04-16T07:57:40.075Z,1018.05
2019-04-16T07:58:40.888Z,1018.08
2019-04-16T07:59:40.053Z,1018.07
2019-04-16T08:00:41.265Z,1017.98
2019-04-16T08:01:40.034Z,1017.96
2019-04-16T08:02:40.023Z,1018.02
2019-04-16T08:03:40.055Z,1018.01
2019-04-16T08:04:40.042Z,1018.08
2019-04-16T08:05:41.010Z,1018.03
2019-04-16T08:06:39.984Z,1017.99
2019-04-16T08:07:39.973Z,1018.03
2019-04-16T08:08:39.952Z,1018.02
2019-04-16T08:09:39.944Z,1018.07
2019-04-16T08:10:39.987Z,1018.09
2019-04-16T08:11:39.997Z,1017.97
2019-04-16T08:12:42.105Z,1017.91
2019-04-16T08:13:39.902Z,1017.90
2019-04-16T08:14:39.938Z,1017.87
2019-04-16T08:15:39.881Z,1017.87
2019-04-16T08:16:47.367Z,1017.90
2019-04-16T08:17:40.852Z,1017.87
2019-04-16T08:18:39.865Z,1017.89
2019-04-16T08:19:39.838Z,1017.93
2019-04-16T08:20:39.849Z,1017.97
2019-04-16T08:21:40.637Z,1017.91
2019-04-16T08:22:40.149Z,1017.98
2019-04-16T08:23:39.822Z,1017.98
2019-04-16T08:24:39.799Z,1017.95
2019-04-16T08:25:39.812Z,1017.91
2019-04-16T08:26:41.662Z,1017.93
2019-04-16T08:27:39.756Z,1017.93
2019-04-16T08:28:39.747Z,1017.97
2019-04-16T08:29:39.728Z,1017.85
2019-04-16T08:30:39.767Z,1017.92
2019-04-16T08:31:40.848Z,1017.86
2019-04-16T08:32:39.699Z,1017.85
2019-04-16T08:33:39.706Z,1017.85
2019-04-16T08:34:39.674Z,1017.82
2019-04-16T08:35:39.696Z,1017.82
2019-04-16T08:36:39.656Z,1017.81
2019-04-16T08:37:48.932Z,1017.85
2019-04-16T08:38:40.627Z,1017.82
2019-04-16T08:39:40.520Z,1017.90
2019-04-16T08:40:39.628Z,1017.83
2019-04-16T08:41:39.628Z,1017.82
2019-04-16T08:42:44.576Z,1017.79
2019-04-16T08:43:40.584Z,1017.85
2019-04-16T08:44:39.576Z,1017.81
2019-04-16T08:45:40.033Z,1017.79
2019-04-16T08:46:40.412Z,1017.77
2019-04-16T08:47:44.519Z,1017.73
2019-04-16T08:48:40.551Z,1017.75
2019-04-16T08:49:39.524Z,1017.77
2019-04-16T08:50:39.495Z,1017.78
2019-04-16T08:51:39.492Z,1017.68
2019-04-16T08:52:41.707Z,1017.76
2019-04-16T08:53:39.484Z,1017.72
2019-04-16T08:54:39.462Z,1017.67
2019-04-16T08:55:39.442Z,1017.67
2019-04-16T08:56:39.460Z,1017.68
2019-04-16T08:57:39.422Z,1017.61
2019-04-16T08:59:48.778Z,1017.52
2019-04-16T09:00:48.330Z,1017.49
2019-04-16T09:01:48.338Z,1017.55
2019-04-16T09:02:48.310Z,1017.48
2019-04-16T09:03:48.299Z,1017.51
2019-04-16T09:04:48.290Z,1017.53
2019-04-16T09:05:48.310Z,1017.57
2019-04-16T09:06:48.290Z,1017.50
2019-04-16T09:07:50.964Z,1017.54
2019-04-16T09:08:52.830Z,1017.52
2019-04-16T09:09:48.234Z,1017.47
2019-04-16T09:10:48.270Z,1017.49
2019-04-16T09:11:48.662Z,1017.52
2019-04-16T09:13:02.366Z,1017.45
2019-04-16T09:13:49.216Z,1017.46
2019-04-16T09:14:48.208Z,1017.42
2019-04-16T09:15:48.169Z,1017.40
2019-04-16T09:16:48.168Z,1017.39
2019-04-16T09:17:48.146Z,1017.44
2019-04-16T09:18:48.153Z,1017.53
2019-04-16T09:19:48.138Z,1017.50
2019-04-16T09:20:48.113Z,1017.47
2019-04-16T09:21:48.103Z,1017.43
2019-04-16T09:22:49.658Z,1017.47
2019-04-16T09:23:48.103Z,1017.36
2019-04-16T09:24:48.079Z,1017.39
2019-04-16T09:25:48.075Z,1017.38
2019-04-16T09:26:48.054Z,1017.50
2019-04-16T09:27:48.060Z,1017.44
2019-04-16T09:28:48.040Z,1017.53
2019-04-16T09:29:48.039Z,1017.51
2019-04-16T09:30:49.810Z,1017.44
2019-04-16T09:31:48.076Z,1017.42
2019-04-16T09:32:47.980Z,1017.40
2019-04-16T09:33:47.976Z,1017.44
2019-04-16T09:34:47.964Z,1017.48
2019-04-16T09:35:47.971Z,1017.42
2019-04-16T09:36:47.959Z,1017.40
2019-04-16T09:37:47.936Z,1017.45
2019-04-16T09:38:47.932Z,1017.44
2019-04-16T09:39:47.918Z,1017.43
2019-04-16T09:40:49.243Z,1017.43
2019-04-16T09:41:47.907Z,1017.39
2019-04-16T09:42:47.885Z,1017.47
2019-04-16T09:43:47.985Z,1017.44
2019-04-16T09:44:47.855Z,1017.48
2019-04-16T09:45:47.857Z,1017.40
2019-04-16T09:46:50.907Z,1017.50
2019-04-16T09:47:47.930Z,1017.48
2019-04-16T09:48:50.068Z,1017.50
2019-04-16T09:49:47.807Z,1017.46
2019-04-16T09:50:48.076Z,1017.41
2019-04-16T09:51:50.327Z,1017.42
2019-04-16T09:52:47.772Z,1017.40
2019-04-16T09:53:47.760Z,1017.40
2019-04-16T09:54:47.744Z,1017.39
2019-04-16T09:55:50.591Z,1017.36
2019-04-16T09:56:47.749Z,1017.39
2019-04-16T09:57:47.719Z,1017.40
2019-04-16T09:58:47.710Z,1017.42
2019-04-16T09:59:48.401Z,1017.37
2019-04-16T10:00:47.683Z,1017.40
2019-04-16T10:01:47.689Z,1017.43
2019-04-16T10:02:47.672Z,1017.38
2019-04-16T10:03:47.657Z,1017.42
2019-04-16T10:04:47.645Z,1017.41
2019-04-16T10:05:47.655Z,1017.33
2019-04-16T10:06:47.746Z,1017.33
2019-04-16T10:07:47.608Z,1017.30
2019-04-16T10:08:47.633Z,1017.28
2019-04-16T10:09:47.589Z,1017.35
2019-04-16T10:10:47.583Z,1017.34
2019-04-16T10:11:47.591Z,1017.30
2019-04-16T10:12:47.556Z,1017.38
2019-04-16T10:13:47.595Z,1017.35
2019-04-16T10:14:47.534Z,1017.37
2019-04-16T10:15:47.526Z,1017.36
2019-04-16T10:16:47.515Z,1017.35
2019-04-16T10:17:47.494Z,1017.41
2019-04-16T10:18:47.562Z,1017.37
2019-04-16T10:19:47.473Z,1017.36
2019-04-16T10:20:47.462Z,1017.38
2019-04-16T10:21:53.162Z,1017.31
2019-04-16T10:22:48.440Z,1017.36
2019-04-16T10:23:47.445Z,1017.34
2019-04-16T10:24:47.454Z,1017.33
2019-04-16T10:25:47.421Z,1017.36
2019-04-16T10:26:47.403Z,1017.31
2019-04-16T10:27:47.388Z,1017.35
2019-04-16T10:28:47.389Z,1017.35
2019-04-16T10:29:47.415Z,1017.38
2019-04-16T10:30:47.370Z,1017.40
2019-04-16T10:31:47.339Z,1017.27
2019-04-16T10:32:47.338Z,1017.23
2019-04-16T10:33:47.326Z,1017.29
2019-04-16T10:34:47.419Z,1017.25
2019-04-16T10:35:47.357Z,1017.20
2019-04-16T10:36:47.293Z,1017.25
2019-04-16T10:37:47.287Z,1017.26
2019-04-16T10:38:47.276Z,1017.27
2019-04-16T10:39:47.320Z,1017.21
2019-04-16T10:40:47.277Z,1017.22
2019-04-16T10:41:47.243Z,1017.21
2019-04-16T10:42:47.265Z,1017.15
2019-04-16T10:43:47.233Z,1017.20
2019-04-16T10:44:47.212Z,1017.19
2019-04-16T10:45:47.202Z,1017.19
2019-04-16T10:46:47.184Z,1017.21
2019-04-16T10:47:47.195Z,1017.20
2019-04-16T10:48:47.862Z,1017.15
2019-04-16T10:49:47.156Z,1017.18
2019-04-16T10:50:47.149Z,1017.24
2019-04-16T10:51:47.156Z,1017.14
2019-04-16T10:52:47.297Z,1017.15
2019-04-16T10:53:47.321Z,1017.23
2019-04-16T10:54:47.152Z,1017.29
2019-04-16T10:55:47.168Z,1017.24
2019-04-16T10:56:47.102Z,1017.23
2019-04-16T10:57:47.093Z,1017.18
2019-04-16T10:58:47.087Z,1017.25
2019-04-16T10:59:47.055Z,1017.21
2019-04-16T11:00:47.064Z,1017.13
2019-04-16T11:01:47.036Z,1017.24
2019-04-16T11:02:47.018Z,1017.22
2019-04-16T11:03:47.023Z,1017.20
2019-04-16T11:04:47.014Z,1017.15
2019-04-16T11:05:47.035Z,1017.18
2019-04-16T11:06:46.981Z,1017.13
2019-04-16T11:07:46.964Z,1017.07
2019-04-16T11:08:46.985Z,1017.14
2019-04-16T11:09:46.940Z,1017.15
2019-04-16T11:10:46.949Z,1017.18
2019-04-16T11:11:46.930Z,1017.19
2019-04-16T11:12:47.009Z,1017.20
2019-04-16T11:13:58.900Z,1017.13
2019-04-16T11:14:47.902Z,1017.16
2019-04-16T11:15:46.905Z,1017.12
2019-04-16T11:16:46.895Z,1017.08
2019-04-16T11:17:46.849Z,1017.16
2019-04-16T11:18:46.838Z,1017.07
2019-04-16T11:19:46.822Z,1017.12
2019-04-16T11:20:46.890Z,1017.15
2019-04-16T11:21:46.798Z,1017.18
2019-04-16T11:22:46.791Z,1017.17
2019-04-16T11:23:46.825Z,1017.14
2019-04-16T11:24:46.807Z,1017.16
2019-04-16T11:25:46.768Z,1017.14
2019-04-16T11:26:46.767Z,1017.12
2019-04-16T11:27:46.862Z,1017.12
2019-04-16T11:28:46.735Z,1017.07
2019-04-16T11:29:46.722Z,1017.12
2019-04-16T11:30:48.791Z,1017.13
2019-04-16T11:31:46.706Z,1017.07
2019-04-16T11:32:46.696Z,1017.04
2019-04-16T11:33:46.717Z,1017.02
2019-04-16T11:34:46.669Z,1017.01
2019-04-16T11:35:46.699Z,1017.06
2019-04-16T11:36:46.664Z,1017.02
2019-04-16T11:37:46.688Z,1017.05
2019-04-16T11:38:46.670Z,1017.03
2019-04-16T11:39:46.622Z,1016.97
2019-04-16T11:40:46.595Z,1017.03
2019-04-16T11:41:46.850Z,1017.06
2019-04-16T11:42:46.601Z,1017.04
2019-04-16T11:43:46.605Z,1017.05
2019-04-16T11:44:50.059Z,1016.98
2019-04-16T11:45:46.549Z,1017.02
2019-04-16T11:46:46.535Z,1017.01
2019-04-16T11:47:48.258Z,1017.00
2019-04-16T11:48:50.018Z,1017.07
2019-04-16T11:49:46.546Z,1017.09
2019-04-16T11:50:46.616Z,1017.13
2019-04-16T11:51:46.496Z,1016.99
2019-04-16T11:52:46.513Z,1017.00
2019-04-16T11:53:47.095Z,1017.03
2019-04-16T11:54:47.005Z,1016.86
2019-04-16T11:55:46.473Z,1016.94
2019-04-16T11:56:46.435Z,1016.94
2019-04-16T11:57:46.436Z,1016.96
2019-04-16T11:58:46.407Z,1016.99
2019-04-16T11:59:46.398Z,1016.93
2019-04-16T12:00:46.418Z,1016.95
2019-04-16T12:01:46.403Z,1016.90
2019-04-16T12:02:46.364Z,1016.96
2019-04-16T12:03:46.353Z,1016.99
2019-04-16T12:04:46.416Z,1016.90
2019-04-16T12:05:46.372Z,1017.02
2019-04-16T12:06:46.346Z,1016.95
2019-04-16T12:07:47.143Z,1017.04